createdAt,value
2023-02-17T00:00:32.804Z,79.15
2023-02-17T00:05:29.888Z,80.88
2023-02-17T00:07:59.705Z,82.20
2023-02-17T00:10:26.443Z,78.05
2023-02-17T00:12:59.468Z,77.18
2023-02-17T00:15:29.064Z,85.25
2023-02-17T00:17:58.142Z,70.80
2023-02-17T00:20:32.355Z,82.80
2023-02-17T00:23:04.749Z,88.43
2023-02-17T00:25:49.255Z,85.10
2023-02-17T00:28:46.431Z,84.50
2023-02-17T00:31:27.174Z,84.05
2023-02-17T00:34:05.346Z,74.93
2023-02-17T00:36:32.424Z,82.82
2023-02-17T00:39:08.951Z,79.78
2023-02-17T00:41:35.653Z,83.50
2023-02-17T00:44:15.082Z,80.75
2023-02-17T00:46:54.650Z,79.88
2023-02-17T00:49:35.736Z,87.00
2023-02-17T00:52:08.640Z,85.60
2023-02-17T00:54:35.428Z,83.13
2023-02-17T00:57:10.178Z,91.13
2023-02-17T00:59:36.937Z,87.43
2023-02-17T01:02:03.922Z,87.18
2023-02-17T01:04:30.671Z,89.60
2023-02-17T01:07:07.477Z,85.97
2023-02-17T01:09:34.200Z,85.95
2023-02-17T01:12:04.085Z,87.00
2023-02-17T01:14:34.033Z,83.70
2023-02-17T01:17:00.672Z,82.63
2023-02-17T01:19:33.062Z,92.00
2023-02-17T01:22:10.318Z,90.68
2023-02-17T01:24:38.244Z,82.57
2023-02-17T01:27:10.933Z,89.32
2023-02-17T01:29:37.602Z,80.65
2023-02-17T01:32:05.909Z,88.15
2023-02-17T01:34:35.072Z,83.07
2023-02-17T01:37:11.022Z,85.72
2023-02-17T01:39:37.841Z,84.00
2023-02-17T01:42:04.590Z,85.32
2023-02-17T01:44:34.350Z,86.60
2023-02-17T01:47:04.329Z,83.80
2023-02-17T01:49:51.984Z,80.45
2023-02-17T01:52:30.992Z,88.15
2023-02-17T01:55:13.888Z,82.82
2023-02-17T01:57:55.409Z,78.78
2023-02-17T02:00:29.455Z,84.30
2023-02-17T02:02:58.172Z,77.53
2023-02-17T02:05:25.213Z,86.25
2023-02-17T02:07:54.519Z,84.03
2023-02-17T02:10:24.400Z,80.20
2023-02-17T02:12:53.844Z,80.22
2023-02-17T02:15:59.237Z,79.45
2023-02-17T02:19:34.968Z,79.18
2023-02-17T02:22:52.363Z,62.63
2023-02-17T02:26:35.281Z,73.70
2023-02-17T02:29:54.970Z,76.15
2023-02-17T02:32:51.532Z,75.88
2023-02-17T02:36:28.421Z,77.15
2023-02-17T02:39:34.051Z,67.88
2023-02-17T02:42:59.817Z,70.50
2023-02-17T02:45:33.350Z,69.85
2023-02-17T02:48:00.737Z,66.10
2023-02-17T02:51:13.279Z,72.88
2023-02-17T02:54:28.687Z,56.42
2023-02-17T02:57:16.184Z,68.53
2023-02-17T03:00:39.017Z,60.83
2023-02-17T03:04:01.134Z,58.05
2023-02-17T03:10:04.218Z,54.17
2023-02-17T03:12:31.807Z,61.78
2023-02-17T03:15:38.205Z,55.00
2023-02-17T03:18:16.567Z,52.70
2023-02-17T03:20:56.305Z,48.85
2023-02-17T03:23:32.276Z,54.47
2023-02-17T03:26:17.135Z,60.75
2023-02-17T03:28:49.886Z,55.38
2023-02-17T03:31:29.047Z,59.15
2023-02-17T03:33:58.207Z,54.20
2023-02-17T03:36:31.266Z,55.03
2023-02-17T03:38:59.030Z,51.20
2023-02-17T03:41:28.897Z,54.65
2023-02-17T03:43:55.692Z,41.20
2023-02-17T03:46:31.673Z,51.17
2023-02-17T03:49:09.417Z,52.55
2023-02-17T03:51:36.238Z,46.17
2023-02-17T03:54:03.064Z,48.00
2023-02-17T03:56:30.478Z,49.03
2023-02-17T03:58:57.278Z,50.45
2023-02-17T04:01:27.193Z,54.58
2023-02-17T04:03:57.205Z,51.58
2023-02-17T04:06:29.000Z,51.00
2023-02-17T04:08:55.854Z,50.83
2023-02-17T04:11:28.714Z,58.20
2023-02-17T04:13:55.362Z,52.38
2023-02-17T04:16:25.276Z,58.83
2023-02-17T04:18:51.953Z,63.80
2023-02-17T04:21:18.672Z,59.88
2023-02-17T04:23:45.738Z,59.47
2023-02-17T04:26:12.598Z,56.20
2023-02-17T04:28:44.139Z,53.30
2023-02-17T04:31:13.751Z,57.75
2023-02-17T04:33:48.776Z,51.83
2023-02-17T04:36:17.974Z,59.55
2023-02-17T04:38:51.429Z,63.85
2023-02-17T04:41:28.769Z,60.30
2023-02-17T04:43:55.517Z,55.60
2023-02-17T04:46:30.417Z,41.55
2023-02-17T04:48:57.220Z,60.85
2023-02-17T04:51:31.048Z,62.50
2023-02-17T04:53:58.029Z,51.45
2023-02-17T04:56:24.942Z,55.05
2023-02-17T04:58:51.707Z,62.38
2023-02-17T05:01:18.388Z,56.53
2023-02-17T05:03:45.539Z,59.58
2023-02-17T05:06:12.342Z,53.95
2023-02-17T05:08:46.962Z,52.78
2023-02-17T05:11:14.860Z,55.67
2023-02-17T05:13:44.785Z,55.80
2023-02-17T05:16:11.728Z,58.28
2023-02-17T05:18:38.607Z,43.47
2023-02-17T05:21:05.885Z,40.83
2023-02-17T05:23:44.147Z,46.88
2023-02-17T05:26:11.253Z,39.05
2023-02-17T05:28:37.973Z,50.95
2023-02-17T05:31:05.456Z,40.80
2023-02-17T05:33:33.447Z,41.53
2023-02-17T05:36:10.815Z,43.70
2023-02-17T05:38:47.893Z,35.33
2023-02-17T05:41:17.686Z,43.45
2023-02-17T05:43:44.926Z,48.20
2023-02-17T05:46:11.717Z,45.95
2023-02-17T05:48:38.966Z,42.08
2023-02-17T05:51:08.815Z,40.42
2023-02-17T05:53:42.398Z,37.67
2023-02-17T05:56:12.094Z,38.77
2023-02-17T05:58:38.866Z,34.90
2023-02-17T06:01:12.654Z,32.25
2023-02-17T06:03:49.599Z,32.13
2023-02-17T06:06:16.561Z,32.38
2023-02-17T06:08:48.710Z,35.38
2023-02-17T06:11:15.579Z,38.70
2023-02-17T06:13:48.388Z,38.88
2023-02-17T06:16:15.117Z,33.05
2023-02-17T06:18:44.915Z,40.70
2023-02-17T06:21:20.171Z,31.90
2023-02-17T06:23:47.568Z,37.05
2023-02-17T06:26:27.729Z,34.47
2023-02-17T07:26:16.581Z,39.10
2023-02-17T07:28:50.787Z,37.05
2023-02-17T07:31:18.537Z,37.80
2023-02-17T07:33:53.003Z,38.72
2023-02-17T07:36:19.931Z,38.00
2023-02-17T07:38:47.287Z,27.45
2023-02-17T07:41:28.729Z,38.47
2023-02-17T07:43:58.007Z,38.67
2023-02-17T07:46:30.316Z,39.25
2023-02-17T07:48:58.546Z,35.13
2023-02-17T07:51:25.747Z,32.13
2023-02-17T07:53:53.535Z,34.78
2023-02-17T07:56:24.578Z,37.38
2023-02-17T07:58:51.482Z,34.45
2023-02-17T08:01:24.049Z,33.40
2023-02-17T08:03:54.461Z,33.63
2023-02-17T08:06:27.915Z,32.78
2023-02-17T08:09:16.955Z,28.47
2023-02-17T08:12:04.932Z,34.65
2023-02-17T08:14:38.659Z,27.60
2023-02-17T08:17:09.434Z,32.47
2023-02-17T08:19:49.737Z,32.15
2023-02-17T08:22:18.177Z,31.88
2023-02-17T08:24:47.481Z,35.10
2023-02-17T08:27:16.632Z,30.10
2023-02-17T08:29:49.509Z,30.48
2023-02-17T08:32:22.558Z,34.05
2023-02-17T08:34:52.378Z,24.42
2023-02-17T08:37:22.356Z,27.27
2023-02-17T08:39:49.408Z,29.20
2023-02-17T08:42:19.775Z,26.92
2023-02-17T08:45:25.637Z,16.17
2023-02-17T08:47:52.435Z,27.67
2023-02-17T08:50:20.351Z,20.00
2023-02-17T08:52:47.524Z,30.23
2023-02-17T08:55:19.115Z,28.02
2023-02-17T08:57:48.694Z,29.42
2023-02-17T09:00:18.904Z,28.17
2023-02-17T09:02:46.343Z,20.17
2023-02-17T09:05:17.068Z,26.02
2023-02-17T09:07:44.220Z,24.23
2023-02-17T09:10:16.632Z,21.98
2023-02-17T11:54:26.197Z,11.85
2023-02-17T11:58:10.875Z,9.70
2023-02-17T12:02:12.744Z,12.02
2023-02-17T12:05:20.148Z,10.30
2023-02-17T12:08:27.353Z,10.25
2023-02-17T12:11:37.027Z,16.42
2023-02-17T12:14:44.752Z,10.32
2023-02-17T12:17:54.376Z,20.10
2023-02-17T12:20:58.517Z,12.07
2023-02-17T12:23:48.110Z,12.38
2023-02-17T12:26:46.269Z,11.57
2023-02-17T12:30:10.531Z,13.32
2023-02-17T12:33:20.533Z,15.70
2023-02-17T12:36:00.845Z,18.67
2023-02-17T12:38:37.168Z,18.75
2023-02-17T12:41:28.484Z,22.77
2023-02-17T12:44:27.377Z,16.25
2023-02-17T12:47:02.744Z,14.50
2023-02-17T12:50:03.052Z,20.83
2023-02-17T12:52:59.328Z,19.38
2023-02-17T12:55:50.983Z,20.73
2023-02-17T12:58:31.102Z,18.52
2023-02-17T13:01:22.146Z,19.00
2023-02-17T13:03:49.064Z,24.30
2023-02-17T13:06:46.016Z,18.50
2023-02-17T13:09:41.456Z,17.58
2023-02-17T13:12:33.254Z,22.30
2023-02-17T13:15:29.766Z,17.15
2023-02-17T13:18:03.520Z,17.80
2023-02-17T13:21:23.230Z,21.50
2023-02-17T13:24:30.770Z,21.60
2023-02-17T13:27:12.241Z,18.40
2023-02-17T13:29:45.075Z,23.30
2023-02-17T13:32:14.550Z,17.70
2023-02-17T13:34:46.435Z,26.13
2023-02-17T13:37:33.589Z,14.98
2023-02-17T13:40:24.136Z,22.30
2023-02-17T13:42:57.624Z,15.65
2023-02-17T13:45:52.757Z,15.05
2023-02-17T13:48:36.244Z,35.88
2023-02-17T13:51:11.306Z,12.32
2023-02-17T13:53:53.152Z,15.85
2023-02-17T13:56:30.498Z,18.05
2023-02-17T13:59:32.849Z,17.13
2023-02-17T14:02:00.040Z,19.88
2023-02-17T14:04:55.117Z,17.52
2023-02-17T14:07:22.391Z,19.92
2023-02-17T14:09:55.151Z,12.77
2023-02-17T14:12:24.921Z,16.77
2023-02-17T14:14:54.971Z,17.00
2023-02-17T14:17:33.257Z,13.60
2023-02-17T14:20:36.291Z,18.15
2023-02-17T14:23:15.891Z,16.08
2023-02-17T14:25:52.797Z,17.15
2023-02-17T14:28:27.080Z,18.88
2023-02-17T14:33:47.331Z,16.23
2023-02-17T14:36:14.642Z,15.38
2023-02-17T14:39:05.306Z,22.60
2023-02-17T14:41:35.286Z,11.00
2023-02-17T14:44:06.105Z,16.15
2023-02-17T14:46:45.134Z,14.75
2023-02-17T14:49:14.476Z,18.08
2023-02-17T14:51:50.520Z,12.43
2023-02-17T14:54:19.281Z,25.08
2023-02-17T14:57:18.388Z,15.65
2023-02-17T14:59:59.305Z,12.57
2023-02-17T15:05:22.706Z,20.80
2023-02-17T15:07:52.193Z,13.52
2023-02-17T15:10:34.774Z,11.85
2023-02-17T15:13:01.882Z,31.38
2023-02-17T15:15:28.582Z,15.90
2023-02-17T15:17:55.281Z,16.02
2023-02-17T15:20:24.442Z,16.67
2023-02-17T15:23:05.019Z,17.45
2023-02-17T15:25:35.573Z,18.00
2023-02-17T15:28:05.038Z,10.75
2023-02-17T15:30:33.282Z,15.38
2023-02-17T15:33:02.625Z,17.27
2023-02-17T15:35:31.558Z,18.90
2023-02-17T15:37:58.297Z,10.65
2023-02-17T15:40:28.246Z,16.55
2023-02-17T15:43:16.706Z,21.90
2023-02-17T15:45:48.721Z,12.70
2023-02-17T15:48:24.942Z,11.63
2023-02-17T15:50:56.555Z,16.17
2023-02-17T15:53:25.441Z,15.95
2023-02-17T15:55:55.686Z,23.48
2023-02-17T15:58:26.008Z,18.58
2023-02-17T16:01:19.229Z,14.55
2023-02-17T16:03:57.445Z,19.23
2023-02-17T16:06:29.127Z,21.17
2023-02-17T16:09:07.676Z,17.13
2023-02-17T16:11:53.615Z,31.20
2023-02-17T16:14:36.151Z,23.63
2023-02-17T16:17:13.966Z,16.77
2023-02-17T16:19:49.807Z,17.23
2023-02-17T16:22:46.514Z,13.95
2023-02-17T16:25:28.242Z,16.38
2023-02-17T16:27:56.954Z,24.27
2023-02-17T16:30:46.702Z,21.33
2023-02-17T16:34:01.884Z,17.55
2023-02-17T16:36:38.840Z,13.75
2023-02-17T16:39:23.728Z,18.60
2023-02-17T16:41:56.139Z,17.85
2023-02-17T16:44:33.776Z,21.67
2023-02-17T16:47:23.311Z,26.77
2023-02-17T16:49:57.532Z,21.35
2023-02-17T16:52:30.866Z,25.55
2023-02-17T16:55:03.243Z,22.43
2023-02-17T16:57:36.963Z,20.92
2023-02-17T17:00:19.857Z,16.63
2023-02-17T17:02:50.523Z,14.85
2023-02-17T17:05:29.824Z,19.33
2023-02-17T17:08:03.128Z,22.10
2023-02-17T17:13:31.005Z,20.48
2023-02-17T17:16:33.941Z,26.80
2023-02-17T17:19:05.751Z,11.60
2023-02-17T17:21:32.998Z,18.38
2023-02-17T17:24:00.164Z,22.70
2023-02-17T17:26:51.266Z,22.63
2023-02-17T17:29:24.810Z,20.33
2023-02-17T18:54:17.451Z,19.67
2023-02-17T19:49:36.081Z,17.15
2023-02-17T21:06:33.340Z,13.30
2023-02-17T21:09:18.315Z,13.50
2023-02-17T21:11:46.538Z,18.45
2023-02-17T21:14:15.322Z,12.52
2023-02-17T21:16:44.022Z,16.85
2023-02-17T21:19:10.761Z,14.40
2023-02-17T21:21:37.683Z,17.45
2023-02-17T21:24:07.659Z,15.77
2023-02-17T21:26:34.512Z,15.52
2023-02-17T21:29:01.438Z,11.77
2023-02-17T21:31:31.513Z,12.13
2023-02-17T21:34:05.385Z,17.52
2023-02-17T21:36:32.277Z,11.35
2023-02-17T21:39:00.974Z,16.35
2023-02-17T21:41:30.248Z,16.75
2023-02-17T21:44:15.950Z,16.77
2023-02-17T21:46:56.076Z,16.20
2023-02-17T21:49:23.479Z,14.10
2023-02-17T21:51:53.230Z,13.93
2023-02-17T21:54:20.328Z,11.25
2023-02-17T21:56:47.177Z,14.27
2023-02-17T21:59:14.161Z,9.35
2023-02-17T22:01:53.096Z,16.15
2023-02-17T22:04:25.633Z,13.88
2023-02-17T22:06:58.021Z,13.10
2023-02-17T22:09:24.817Z,14.40
2023-02-17T22:11:58.593Z,16.17
2023-02-17T22:14:25.660Z,16.38
2023-02-17T22:16:54.602Z,18.67
2023-02-17T22:19:30.382Z,15.95
2023-02-17T22:22:01.084Z,14.45
2023-02-17T22:24:30.973Z,15.38
2023-02-17T22:27:10.293Z,13.07
2023-02-17T22:29:37.045Z,16.58
2023-02-17T22:32:06.835Z,13.65
2023-02-17T22:34:33.650Z,14.75
2023-02-17T22:37:00.355Z,16.20
2023-02-17T22:39:27.057Z,18.38
2023-02-17T22:42:07.199Z,14.20
2023-02-17T22:44:33.961Z,7.10
2023-02-17T22:47:00.778Z,14.98
2023-02-17T22:49:28.000Z,12.40
2023-02-17T22:51:55.057Z,13.25
2023-02-17T22:54:21.780Z,19.98
2023-02-17T22:56:53.258Z,17.88
2023-02-17T22:59:20.023Z,13.20
2023-02-17T23:01:53.942Z,13.05
2023-02-17T23:04:25.787Z,14.50
2023-02-17T23:07:10.845Z,19.65
2023-02-17T23:09:37.715Z,20.90
2023-02-17T23:12:11.470Z,11.73
2023-02-17T23:14:43.801Z,12.27
2023-02-17T23:17:16.372Z,13.55
2023-02-17T23:19:54.998Z,14.73
2023-02-17T23:22:22.817Z,16.42
2023-02-17T23:24:49.435Z,15.90
2023-02-17T23:27:16.485Z,19.00
2023-02-17T23:29:57.751Z,16.20
2023-02-17T23:32:24.487Z,19.88
2023-02-17T23:34:53.448Z,17.85
2023-02-17T23:37:22.507Z,20.20
2023-02-17T23:39:49.290Z,15.52
2023-02-17T23:42:16.039Z,10.70
2023-02-17T23:44:45.753Z,11.90
2023-02-17T23:47:12.443Z,16.38
2023-02-17T23:49:41.109Z,27.75
2023-02-17T23:52:07.771Z,14.38
2023-02-17T23:54:34.382Z,8.55
2023-02-17T23:57:07.135Z,15.35
2023-02-17T23:59:34.030Z,18.00
